Time;durP1;ratioP1;P1;durP2;ratioP2;P2;SDS_P1;SDS_P2;PMS_P1;PMS_P2;Temp;Humidity;BMP_temperature;BMP_pressure;BME280_temperature;BME280_humidity;BME280_pressure;Samples;Min_cycle;Max_cycle;Signal;HPM_P1;HPM_P2
2021/07/28 00:01:39;;;;;;;3.87;3.40;;;;;;;22.80;100.00;97207.63;4970958;28;20225;-68
2021/07/28 00:04:06;;;;;;;4.00;3.60;;;;;;;22.79;100.00;97218.72;4970430;28;20345;-68
2021/07/28 00:06:33;;;;;;;2.97;2.77;;;;;;;22.79;100.00;97221.31;4973689;28;20241;-66
2021/07/28 00:09:00;;;;;;;3.30;3.00;;;;;;;22.55;100.00;97177.28;4980061;28;20238;-67
2021/07/28 00:11:27;;;;;;;3.23;3.00;;;;;;;21.95;100.00;97078.72;4978138;28;20233;-67
2021/07/28 00:13:53;;;;;;;3.93;3.10;;;;;;;22.80;100.00;97217.88;4989204;28;20206;-67
2021/07/28 00:16:20;;;;;;;3.67;3.20;;;;;;;22.80;100.00;97228.13;4971389;28;20217;-67
2021/07/28 00:18:59;;;;;;;3.33;3.03;;;;;;;22.79;100.00;97234.09;4981352;28;20281;-68
2021/07/28 00:24:11;;;;;;;4.20;3.63;;;;;;;21.69;100.00;97042.34;4992317;28;20764;-67
2021/07/28 00:26:38;;;;;;;3.67;3.37;;;;;;;22.79;100.00;97228.97;4993633;28;20443;-67
2021/07/28 00:29:04;;;;;;;3.10;2.80;;;;;;;22.80;100.00;97230.69;4988829;28;20213;-65
2021/07/28 00:31:31;;;;;;;3.53;2.90;;;;;;;22.81;100.00;97239.25;4989928;28;20225;-67
2021/07/28 00:33:58;;;;;;;3.20;2.90;;;;;;;22.77;100.00;97237.50;4980414;28;20268;-67
2021/07/28 00:36:24;;;;;;;5.87;3.23;;;;;;;22.81;100.00;97245.25;4978919;28;20289;-68
2021/07/28 00:38:51;;;;;;;3.53;3.23;;;;;;;22.82;100.00;97246.97;4977149;28;20254;-68
2021/07/28 00:41:18;;;;;;;3.47;3.17;;;;;;;22.83;100.00;97250.41;4979540;28;20292;-67
2021/07/28 00:43:45;;;;;;;3.37;3.00;;;;;;;22.83;100.00;97251.25;4987813;28;20202;-65
2021/07/28 00:46:11;;;;;;;5.80;3.03;;;;;;;22.84;100.00;97254.69;4979163;28;20217;-67
2021/07/28 00:48:38;;;;;;;6.03;3.30;;;;;;;22.85;100.00;97248.72;4970229;28;20578;-67
2021/07/28 00:51:05;;;;;;;3.43;3.13;;;;;;;21.89;100.00;97088.84;4997242;28;20621;-66
2021/07/28 00:53:32;;;;;;;3.53;3.23;;;;;;;22.86;100.00;97240.22;5011278;28;20276;-66
2021/07/28 00:56:00;;;;;;;3.60;3.27;;;;;;;22.48;100.00;97184.78;4972313;28;20627;-66
2021/07/28 00:58:27;;;;;;;3.30;3.00;;;;;;;22.86;100.00;97242.78;4980666;28;20210;-64
2021/07/28 01:00:53;;;;;;;3.10;2.90;;;;;;;22.04;100.00;97104.50;4980101;28;20233;-67
2021/07/28 01:03:20;;;;;;;3.23;2.93;;;;;;;22.86;100.00;97248.75;4975106;28;20226;-67
2021/07/28 01:05:47;;;;;;;3.80;3.37;;;;;;;22.89;100.00;97253.09;4972672;28;20211;-65
2021/07/28 01:08:13;;;;;;;3.43;3.13;;;;;;;22.73;100.00;97216.06;4975248;28;20202;-67
2021/07/28 01:10:40;;;;;;;3.33;3.03;;;;;;;22.73;100.00;97218.63;4990012;28;20210;-67
2021/07/28 01:13:08;;;;;;;3.47;3.10;;;;;;;22.89;100.00;97240.28;4981186;28;20273;-66
2021/07/28 01:18:08;;;;;;;3.57;3.23;;;;;;;22.90;100.00;97245.44;5008120;28;20217;-66
2021/07/28 01:20:39;;;;;;;3.30;3.00;;;;;;;22.91;100.00;97251.41;4976255;28;20206;-63
2021/07/28 01:23:25;;;;;;;5.50;3.33;;;;;;;22.91;100.00;97241.16;4984482;28;20692;-66
2021/07/28 01:25:52;;;;;;;3.43;3.13;;;;;;;22.65;100.00;97203.94;4990400;28;20547;-66
2021/07/28 01:28:23;;;;;;;3.20;2.90;;;;;;;22.91;100.00;97248.84;4989042;28;20266;-67
2021/07/28 01:31:12;;;;;;;3.33;3.03;;;;;;;22.90;100.00;97242.00;4991538;28;20210;-66
2021/07/28 01:33:46;;;;;;;3.27;2.97;;;;;;;22.77;100.00;97217.00;5005348;28;20692;-65
2021/07/28 01:36:19;;;;;;;3.20;2.90;;;;;;;22.92;100.00;97236.06;4982670;28;20221;-64
2021/07/28 01:38:46;;;;;;;3.77;3.47;;;;;;;22.92;100.00;97248.03;4990570;28;20213;-67
2021/07/28 01:41:16;;;;;;;3.63;3.33;;;;;;;22.92;100.00;97248.03;4993103;28;20230;-66
2021/07/28 01:43:43;;;;;;;3.23;2.93;;;;;;;22.91;100.00;97239.47;4973044;28;20601;-66
2021/07/28 01:46:10;;;;;;;3.60;3.03;;;;;;;22.91;100.00;97236.91;4970782;28;20257;-67
2021/07/28 01:48:36;;;;;;;3.90;3.10;;;;;;;22.65;100.00;97193.69;4983221;28;20206;-66
2021/07/28 01:51:03;;;;;;;4.83;3.23;;;;;;;22.78;100.00;97211.03;4992409;28;20206;-66
2021/07/28 01:53:30;;;;;;;3.03;2.80;;;;;;;22.76;100.00;97211.00;5004446;28;20223;-63
2021/07/28 01:55:57;;;;;;;3.10;2.80;;;;;;;22.92;100.00;97230.94;4986144;28;20218;-67
2021/07/28 01:58:24;;;;;;;3.10;2.80;;;;;;;22.93;100.00;97227.56;4973000;28;20203;-67
2021/07/28 02:00:50;;;;;;;4.00;2.90;;;;;;;22.93;100.00;97235.25;4991942;28;20218;-66
2021/07/28 02:03:17;;;;;;;3.17;2.90;;;;;;;22.94;100.00;97246.34;4982341;28;20241;-66
2021/07/28 02:05:44;;;;;;;3.23;3.03;;;;;;;22.93;100.00;97248.06;4990152;28;20293;-67
2021/07/28 02:08:13;;;;;;;4.80;3.10;;;;;;;22.94;100.00;97243.78;4981706;28;20265;-66
2021/07/28 02:10:45;;;;;;;3.20;2.90;;;;;;;22.95;100.00;97242.97;4991832;28;20277;-66
2021/07/28 02:13:15;;;;;;;3.23;2.93;;;;;;;22.94;100.00;97236.09;4969540;28;20286;-66
2021/07/28 02:15:43;;;;;;;3.20;2.90;;;;;;;22.27;100.00;97128.88;4992508;28;20210;-64
2021/07/28 02:18:10;;;;;;;3.20;2.70;;;;;;;22.94;100.00;97242.09;4975650;28;20773;-64
2021/07/28 02:20:37;;;;;;;3.60;3.30;;;;;;;22.49;100.00;97164.31;4988993;28;20237;-68
2021/07/28 02:23:04;;;;;;;3.73;3.37;;;;;;;22.79;100.00;97208.50;4987977;28;20230;-66
2021/07/28 02:25:31;;;;;;;2.80;2.60;;;;;;;22.96;100.00;97242.13;4975362;28;20272;-66
2021/07/28 02:27:58;;;;;;;3.03;2.83;;;;;;;22.78;100.00;97209.34;4991425;28;20234;-67
2021/07/28 02:30:24;;;;;;;3.33;3.03;;;;;;;22.83;100.00;97225.63;4990689;28;20213;-68
2021/07/28 02:32:51;;;;;;;3.40;3.10;;;;;;;21.91;100.00;97058.16;4979816;28;20227;-66
2021/07/28 02:35:18;;;;;;;3.37;2.80;;;;;;;22.96;100.00;97239.56;4981249;28;20272;-68
2021/07/28 02:37:45;;;;;;;3.10;2.80;;;;;;;22.97;100.00;97238.72;4974107;28;20211;-66
2021/07/28 02:40:13;;;;;;;3.47;3.17;;;;;;;22.96;100.00;97240.44;4981200;28;20215;-67
2021/07/28 02:42:40;;;;;;;3.93;3.10;;;;;;;22.50;100.00;97163.50;4968968;28;20280;-66
2021/07/28 02:45:07;;;;;;;3.00;2.80;;;;;;;22.97;100.00;97243.84;4972850;28;20241;-67
2021/07/28 02:47:33;;;;;;;3.10;2.80;;;;;;;22.97;100.00;97243.84;5007128;28;20202;-67
2021/07/28 02:50:00;;;;;;;3.20;2.90;;;;;;;22.66;100.00;97178.34;5007374;28;20606;-66
2021/07/28 02:52:27;;;;;;;3.77;3.17;;;;;;;22.97;100.00;97234.47;4973833;28;21180;-68
2021/07/28 02:54:54;;;;;;;3.37;3.07;;;;;;;22.97;100.00;97226.78;4990789;28;20214;-66
2021/07/28 02:57:20;;;;;;;3.13;2.93;;;;;;;22.83;100.00;97202.56;4996684;28;20265;-66
2021/07/28 02:59:47;;;;;;;3.20;2.90;;;;;;;22.97;100.00;97229.34;4982090;28;20243;-66
2021/07/28 03:02:13;;;;;;;3.30;3.00;;;;;;;22.98;100.00;97237.91;4977816;28;20218;-65
2021/07/28 03:04:40;;;;;;;3.30;2.87;;;;;;;22.64;100.00;97181.69;4984095;28;20297;-67
2021/07/28 03:07:07;;;;;;;3.80;3.10;;;;;;;22.98;100.00;97237.91;4971697;28;20238;-66
2021/07/28 03:09:34;;;;;;;3.07;2.87;;;;;;;22.46;100.00;97142.88;4978830;28;20287;-66
2021/07/28 03:12:00;;;;;;;3.43;3.13;;;;;;;22.82;100.00;97198.28;4989075;28;20402;-67
2021/07/28 03:14:27;;;;;;;3.43;3.10;;;;;;;22.03;100.00;97068.66;4995275;28;20217;-66
2021/07/28 03:16:54;;;;;;;3.43;3.13;;;;;;;22.98;100.00;97236.19;4984341;28;20225;-64
2021/07/28 03:19:20;;;;;;;3.00;2.77;;;;;;;23.00;100.00;97233.66;4978362;28;20206;-66
2021/07/28 03:21:50;;;;;;;2.73;2.53;;;;;;;22.98;100.00;97231.06;5006964;28;20636;-66
2021/07/28 03:24:17;;;;;;;2.93;2.70;;;;;;;22.99;100.00;97234.50;4975588;28;20211;-67
2021/07/28 03:26:45;;;;;;;5.40;2.80;;;;;;;22.49;100.00;97153.19;4970904;28;20207;-67
2021/07/28 03:29:12;;;;;;;3.00;2.80;;;;;;;23.00;100.00;97242.22;5004611;28;20298;-65
2021/07/28 03:31:39;;;;;;;3.10;2.80;;;;;;;23.00;100.00;97238.78;4971782;28;20223;-67
2021/07/28 03:34:06;;;;;;;3.13;2.83;;;;;;;22.84;100.00;97212.00;4986893;28;20295;-66
2021/07/28 03:36:32;;;;;;;3.00;2.80;;;;;;;23.01;100.00;97245.66;4980614;28;20202;-67
2021/07/28 03:38:59;;;;;;;3.13;2.83;;;;;;;22.86;100.00;97223.13;4971676;28;20215;-66
2021/07/28 03:41:26;;;;;;;2.90;2.70;;;;;;;23.01;100.00;97236.25;4972988;28;20933;-67
2021/07/28 03:43:53;;;;;;;3.27;2.97;;;;;;;23.02;100.00;97232.00;4969723;28;20222;-66
2021/07/28 03:46:19;;;;;;;5.27;2.93;;;;;;;22.09;100.00;97061.09;4971667;28;20207;-66
2021/07/28 03:48:46;;;;;;;2.70;2.50;;;;;;;23.03;100.00;97226.00;4973921;28;20591;-66
2021/07/28 03:51:13;;;;;;;2.93;2.73;;;;;;;23.01;100.00;97235.41;4989570;28;20230;-66
2021/07/28 03:53:39;;;;;;;3.07;2.83;;;;;;;23.00;100.00;97239.66;4970660;28;20230;-67
2021/07/28 03:56:06;;;;;;;3.10;2.83;;;;;;;22.85;100.00;97208.59;4975571;28;20211;-66
2021/07/28 03:58:33;;;;;;;3.43;2.60;;;;;;;22.97;100.00;97239.59;4979196;28;20260;-66
2021/07/28 04:01:00;;;;;;;2.63;2.43;;;;;;;22.96;100.00;97240.44;4976105;28;20300;-66
2021/07/28 04:03:26;;;;;;;3.00;2.70;;;;;;;22.95;100.00;97236.13;4969926;28;20237;-66
2021/07/28 04:05:54;;;;;;;2.90;2.70;;;;;;;22.95;100.00;97246.38;4977422;28;20214;-64
2021/07/28 04:08:21;;;;;;;3.00;2.80;;;;;;;22.94;100.00;97234.41;4973671;28;20643;-66
2021/07/28 04:10:48;;;;;;;3.17;2.87;;;;;;;22.95;100.00;97242.97;4980752;28;20676;-66
2021/07/28 04:13:15;;;;;;;3.10;2.80;;;;;;;22.94;100.00;97238.66;4979664;28;20227;-66
2021/07/28 04:15:42;;;;;;;3.00;2.80;;;;;;;22.94;100.00;97241.22;4993828;28;20538;-67
2021/07/28 04:18:09;;;;;;;3.13;2.83;;;;;;;22.93;100.00;97237.81;4979141;28;20740;-66
2021/07/28 04:20:35;;;;;;;3.40;3.10;;;;;;;22.93;100.00;97237.81;5004995;28;20288;-67
2021/07/28 04:23:02;;;;;;;3.70;2.80;;;;;;;22.94;100.00;97243.78;5007366;28;20320;-67
2021/07/28 04:25:28;;;;;;;2.87;2.63;;;;;;;22.93;100.00;97244.63;5006006;28;20210;-67
2021/07/28 04:27:55;;;;;;;3.13;2.83;;;;;;;22.94;100.00;97252.34;5006350;28;20237;-67
2021/07/28 04:30:22;;;;;;;3.10;2.90;;;;;;;22.92;100.00;97243.75;5005852;28;20214;-65
2021/07/28 04:32:49;;;;;;;3.03;2.80;;;;;;;22.93;100.00;97248.06;4979733;28;20225;-67
2021/07/28 04:35:15;;;;;;;2.90;2.63;;;;;;;22.86;100.00;97235.94;4989286;28;20269;-67
2021/07/28 04:37:42;;;;;;;3.30;3.00;;;;;;;22.26;100.00;97128.84;4980420;28;20211;-67
2021/07/28 04:40:09;;;;;;;3.17;2.70;;;;;;;22.94;100.00;97259.16;5001155;28;20365;-67
2021/07/28 04:42:37;;;;;;;5.10;2.93;;;;;;;22.93;100.00;97247.19;4999764;28;20849;-67
2021/07/28 04:45:05;;;;;;;2.83;2.63;;;;;;;22.17;100.00;97114.16;5003089;28;20195;-66
2021/07/28 04:47:31;;;;;;;3.43;3.10;;;;;;;22.93;100.00;97248.06;5005664;28;20245;-64
2021/07/28 04:49:58;;;;;;;3.10;2.80;;;;;;;22.83;100.00;97227.34;5005530;28;20257;-66
2021/07/28 04:52:25;;;;;;;3.63;2.87;;;;;;;22.93;100.00;97250.63;5005198;28;20660;-66
2021/07/28 04:54:52;;;;;;;3.20;2.80;;;;;;;22.93;100.00;97250.63;5001984;28;20608;-65
2021/07/28 04:57:19;;;;;;;4.67;3.30;;;;;;;22.93;100.00;97255.75;5005441;28;20228;-67
2021/07/28 04:59:45;;;;;;;2.77;2.57;;;;;;;22.94;100.00;97259.16;5006514;28;20226;-67
2021/07/28 05:02:12;;;;;;;3.37;3.07;;;;;;;22.94;100.00;97262.59;5001919;28;20242;-66
2021/07/28 05:04:39;;;;;;;2.90;2.60;;;;;;;22.80;100.00;97238.38;5007341;28;20203;-66
2021/07/28 05:07:05;;;;;;;2.93;2.70;;;;;;;22.93;100.00;97266.00;5001698;28;20599;-66
2021/07/28 05:09:32;;;;;;;3.53;3.23;;;;;;;22.93;100.00;97257.44;4995709;28;20289;-66
2021/07/28 05:11:58;;;;;;;4.60;3.10;;;;;;;22.95;100.00;97266.03;5005482;28;20249;-67
2021/07/28 05:14:25;;;;;;;3.23;2.93;;;;;;;22.94;100.00;97270.28;5006742;28;20240;-66
2021/07/28 05:16:52;;;;;;;3.30;3.00;;;;;;;22.94;100.00;97264.28;5006286;28;20206;-67
2021/07/28 05:19:18;;;;;;;2.80;2.60;;;;;;;22.95;100.00;97273.72;5003937;28;20230;-68
2021/07/28 05:21:45;;;;;;;3.43;3.13;;;;;;;22.94;100.00;97257.47;5006003;28;20759;-66
2021/07/28 05:24:11;;;;;;;2.70;2.50;;;;;;;22.95;100.00;97253.22;5006715;28;20289;-64
2021/07/28 05:26:38;;;;;;;3.33;3.00;;;;;;;22.94;100.00;97252.34;5006239;28;20309;-66
2021/07/28 05:29:05;;;;;;;3.13;2.83;;;;;;;22.94;100.00;97254.91;5006029;28;20598;-68
2021/07/28 05:31:31;;;;;;;3.70;3.33;;;;;;;22.94;100.00;97249.78;5004094;28;20337;-67
2021/07/28 05:33:58;;;;;;;8.87;3.93;;;;;;;22.94;100.00;97244.66;5005935;28;20202;-66
2021/07/28 05:36:24;;;;;;;5.60;3.70;;;;;;;22.95;100.00;97248.09;5009922;28;20821;-67
2021/07/28 05:38:51;;;;;;;4.67;3.97;;;;;;;22.96;100.00;97249.81;5009862;28;20655;-67
2021/07/28 05:41:18;;;;;;;5.40;4.30;;;;;;;22.96;100.00;97235.31;5009310;28;20198;-64
2021/07/28 05:43:44;;;;;;;5.10;4.20;;;;;;;22.97;100.00;97243.84;5005060;28;20238;-66
2021/07/28 05:46:11;;;;;;;3.83;3.53;;;;;;;22.98;100.00;97232.78;4989890;28;20241;-65
2021/07/28 05:48:38;;;;;;;5.13;4.10;;;;;;;22.99;100.00;97231.94;4969398;28;20651;-64
2021/07/28 05:51:04;;;;;;;4.60;3.90;;;;;;;23.00;100.00;97234.53;5004307;28;20260;-66
2021/07/28 05:53:32;;;;;;;5.37;3.83;;;;;;;23.01;100.00;97237.97;4973003;28;20653;-66
2021/07/28 05:55:58;;;;;;;7.90;3.90;;;;;;;23.02;100.00;97235.44;5009297;28;20313;-65
2021/07/28 05:58:25;;;;;;;5.53;4.30;;;;;;;23.04;100.00;97232.88;5009042;28;20285;-66
2021/07/28 06:00:51;;;;;;;5.70;4.20;;;;;;;23.04;100.00;97238.84;4991384;28;20217;-66
2021/07/28 06:03:18;;;;;;;4.13;3.73;;;;;;;23.04;100.00;97241.41;4982311;28;20684;-62
2021/07/28 06:05:45;;;;;;;4.60;4.20;;;;;;;23.06;100.00;97244.00;4979495;28;20642;-66
2021/07/28 06:08:11;;;;;;;4.33;3.93;;;;;;;23.07;100.00;97248.31;4978470;28;20257;-66
2021/07/28 06:10:38;;;;;;;4.33;3.93;;;;;;;23.07;100.00;97253.47;4968654;28;20297;-63
2021/07/28 06:13:05;;;;;;;4.80;4.40;;;;;;;23.08;100.00;97255.16;5002804;28;20301;-65
2021/07/28 06:15:31;;;;;;;4.73;4.23;;;;;;;23.08;100.00;97256.03;5007333;28;20210;-67
2021/07/28 06:17:58;;;;;;;4.27;3.93;;;;;;;23.10;100.00;97261.19;5007065;28;20210;-66
2021/07/28 06:20:25;;;;;;;4.57;4.10;;;;;;;23.09;100.00;97260.31;5006809;28;20985;-66
2021/07/28 06:22:51;;;;;;;4.13;3.83;;;;;;;22.94;100.00;97228.41;5004333;28;20265;-66
2021/07/28 06:25:18;;;;;;;6.03;4.53;;;;;;;23.10;100.00;97248.38;4973123;28;20577;-66
2021/07/28 06:27:49;;;;;;;5.53;3.83;;;;;;;22.96;100.00;97227.63;4990107;28;20260;-66
2021/07/28 06:30:17;;;;;;;6.17;4.10;;;;;;;23.11;100.00;97244.97;4978438;28;20210;-66
2021/07/28 06:32:44;;;;;;;4.73;3.83;;;;;;;23.11;100.00;97243.28;4989168;28;20226;-65
2021/07/28 06:35:11;;;;;;;5.27;4.50;;;;;;;23.13;100.00;97243.31;4990006;28;20210;-66
2021/07/28 06:37:37;;;;;;;4.80;4.30;;;;;;;23.11;100.00;97235.59;4971334;28;20211;-66
2021/07/28 06:40:05;;;;;;;9.70;4.13;;;;;;;23.12;100.00;97241.59;5006167;28;20202;-65
2021/07/28 06:42:31;;;;;;;11.80;4.37;;;;;;;23.12;100.00;97247.56;4988461;28;20234;-63
2021/07/28 06:44:58;;;;;;;5.10;4.60;;;;;;;23.13;100.00;97243.31;4985808;28;20847;-66
2021/07/28 06:47:24;;;;;;;10.37;4.07;;;;;;;23.13;100.00;97238.19;4989803;28;20660;-66
2021/07/28 06:49:52;;;;;;;6.30;4.33;;;;;;;23.13;100.00;97251.88;5001531;28;20202;-67
2021/07/28 06:52:19;;;;;;;4.40;4.00;;;;;;;23.13;100.00;97261.25;5000058;28;20229;-66
2021/07/28 06:55:05;;;;;;;6.83;4.13;;;;;;;23.13;100.00;97249.31;4965296;28;20219;-71
2021/07/28 06:57:31;;;;;;;6.40;3.93;;;;;;;23.03;100.00;97238.81;4963623;28;20227;-71
2021/07/28 06:59:59;;;;;;;6.47;4.30;;;;;;;23.12;100.00;97260.38;4966975;28;20705;-75
2021/07/28 07:02:25;;;;;;;4.33;3.77;;;;;;;23.15;100.00;97262.16;4962039;28;20291;-71
2021/07/28 07:04:52;;;;;;;4.10;3.70;;;;;;;23.12;100.00;97256.97;4947359;28;20314;-72
2021/07/28 07:07:20;;;;;;;4.50;3.80;;;;;;;23.01;100.00;97237.97;4921711;29;20220;-75
2021/07/28 07:09:48;;;;;;;6.27;4.07;;;;;;;23.15;100.00;97257.03;4915346;28;20224;-71
2021/07/28 07:12:14;;;;;;;4.30;3.90;;;;;;;23.14;100.00;97256.16;4933980;29;20682;-69
2021/07/28 07:14:45;;;;;;;3.97;3.67;;;;;;;23.13;100.00;97251.88;4917583;28;20697;-70
2021/07/28 07:17:12;;;;;;;5.90;3.63;;;;;;;23.13;100.00;97251.00;4944501;28;20259;-73
2021/07/28 07:19:39;;;;;;;4.53;4.13;;;;;;;23.12;100.00;97262.94;4930620;28;20263;-70
2021/07/28 07:22:05;;;;;;;7.40;3.93;;;;;;;23.13;100.00;97268.94;4948767;28;20216;-71
2021/07/28 07:24:32;;;;;;;8.17;4.40;;;;;;;23.12;100.00;97265.50;4932732;28;20659;-72
2021/07/28 07:26:59;;;;;;;6.83;4.40;;;;;;;23.13;100.00;97263.81;4952078;28;20677;-68
2021/07/28 07:29:26;;;;;;;4.60;4.20;;;;;;;23.11;100.00;97265.47;4931974;29;20208;-71
2021/07/28 07:31:53;;;;;;;4.80;3.70;;;;;;;23.10;100.00;97262.06;4925600;28;20258;-75
2021/07/28 07:34:20;;;;;;;4.50;4.10;;;;;;;23.11;100.00;97262.91;4928433;29;20241;-69
2021/07/28 07:36:46;;;;;;;4.17;3.77;;;;;;;23.10;100.00;97264.63;4945075;28;20208;-74
2021/07/28 07:39:13;;;;;;;4.33;3.93;;;;;;;23.06;100.00;97252.59;4945466;28;20825;-72
2021/07/28 07:41:40;;;;;;;4.67;4.13;;;;;;;23.05;100.00;97256.00;4948329;28;20292;-71
2021/07/28 07:44:07;;;;;;;5.30;3.73;;;;;;;23.09;100.00;97264.56;4915641;29;20216;-72
2021/07/28 07:46:33;;;;;;;3.97;3.57;;;;;;;22.97;100.00;97249.84;4917487;28;20614;-72
2021/07/28 07:49:00;;;;;;;5.43;3.97;;;;;;;23.09;100.00;97256.88;4943316;28;20212;-70
2021/07/28 07:51:28;;;;;;;4.43;3.93;;;;;;;23.04;100.00;97249.13;4914144;29;20220;-71
2021/07/28 07:53:55;;;;;;;4.20;3.70;;;;;;;23.08;100.00;97252.59;4930750;29;20307;-72
2021/07/28 07:56:22;;;;;;;4.40;3.70;;;;;;;22.93;100.00;97227.56;4947541;28;20670;-75
2021/07/28 07:58:48;;;;;;;5.33;3.90;;;;;;;23.07;100.00;97249.16;4946701;28;20259;-73
2021/07/28 08:01:15;;;;;;;4.70;3.83;;;;;;;23.02;100.00;97229.41;4931319;28;20203;-73
2021/07/28 08:03:42;;;;;;;4.60;4.20;;;;;;;23.06;100.00;97250.00;4947616;28;20307;-72
2021/07/28 08:06:10;;;;;;;4.67;4.07;;;;;;;23.02;100.00;97242.25;4915825;29;20627;-65
2021/07/28 08:08:38;;;;;;;4.33;3.93;;;;;;;22.92;100.00;97230.09;4915777;29;20208;-74
2021/07/28 08:11:07;;;;;;;4.83;3.70;;;;;;;23.08;100.00;97265.44;4931981;29;20215;-72
2021/07/28 08:13:34;;;;;;;4.07;3.60;;;;;;;23.07;100.00;97273.97;4930761;28;20227;-71
2021/07/28 08:16:01;;;;;;;4.30;3.90;;;;;;;23.07;100.00;97263.72;4914552;29;20204;-75
2021/07/28 08:18:28;;;;;;;3.77;3.47;;;;;;;23.06;100.00;97273.09;4942259;28;20585;-71
2021/07/28 08:20:55;;;;;;;3.80;3.50;;;;;;;23.01;100.00;97269.56;4945971;28;20651;-69
2021/07/28 08:23:21;;;;;;;5.47;3.43;;;;;;;23.06;100.00;97275.66;4943823;28;20784;-72
2021/07/28 08:25:48;;;;;;;4.60;3.80;;;;;;;22.96;100.00;97255.81;4930789;29;20587;-72
2021/07/28 08:28:14;;;;;;;4.10;3.70;;;;;;;23.06;100.00;97267.09;4911638;29;20811;-72
2021/07/28 08:30:41;;;;;;;4.27;3.90;;;;;;;23.06;100.00;97273.09;4945053;28;20212;-72
2021/07/28 08:33:08;;;;;;;4.67;4.27;;;;;;;23.06;100.00;97288.47;4945900;28;20279;-73
2021/07/28 08:35:34;;;;;;;4.03;3.63;;;;;;;23.02;100.00;97267.88;4926972;29;20299;-71
2021/07/28 08:38:02;;;;;;;3.97;3.57;;;;;;;23.06;100.00;97280.78;4930336;28;20196;-71
2021/07/28 08:40:28;;;;;;;4.07;3.70;;;;;;;22.92;100.00;97264.25;4925972;29;20208;-74
2021/07/28 08:42:55;;;;;;;4.43;4.03;;;;;;;23.00;100.00;97283.22;4945663;28;20236;-71
2021/07/28 08:45:22;;;;;;;4.43;3.70;;;;;;;23.06;100.00;97285.91;4917646;29;20224;-71
2021/07/28 08:47:49;;;;;;;6.50;4.10;;;;;;;23.05;100.00;97284.19;4944444;28;20208;-71
2021/07/28 08:50:15;;;;;;;5.63;3.60;;;;;;;23.06;100.00;97287.59;4914153;29;20290;-71
2021/07/28 08:52:42;;;;;;;5.70;4.00;;;;;;;23.05;100.00;97283.31;4947168;28;20208;-72
2021/07/28 08:55:09;;;;;;;5.70;3.97;;;;;;;23.05;100.00;97289.31;4932573;28;20291;-67
2021/07/28 08:57:36;;;;;;;4.17;3.77;;;;;;;23.06;100.00;97297.84;4914578;29;20204;-72
2021/07/28 09:00:04;;;;;;;3.60;3.30;;;;;;;23.02;100.00;97293.50;4913162;29;20200;-72
2021/07/28 09:02:31;;;;;;;4.63;3.80;;;;;;;22.69;100.00;97237.34;4932866;29;20780;-69
2021/07/28 09:04:58;;;;;;;4.00;3.60;;;;;;;23.05;100.00;97309.81;4930310;29;20604;-76
2021/07/28 09:07:25;;;;;;;4.37;3.77;;;;;;;23.05;100.00;97312.38;4931332;29;20232;-73
2021/07/28 09:09:54;;;;;;;4.13;3.73;;;;;;;23.00;100.00;97308.84;4946519;28;20271;-70
2021/07/28 09:12:30;;;;;;;4.30;3.87;;;;;;;23.00;100.00;97308.84;4948961;28;20219;-73
2021/07/28 09:15:00;;;;;;;4.77;4.00;;;;;;;23.05;100.00;97329.44;4947908;29;20267;-70
2021/07/28 09:17:28;;;;;;;4.37;3.97;;;;;;;23.00;100.00;97313.09;4939176;28;20300;-71
2021/07/28 09:19:56;;;;;;;4.57;3.67;;;;;;;23.05;100.00;97332.00;4947389;29;20213;-73
2021/07/28 09:22:37;;;;;;;5.03;3.70;;;;;;;23.05;100.00;97324.31;4948049;28;20212;-69
2021/07/28 09:25:19;;;;;;;3.67;3.37;;;;;;;23.06;100.00;97331.16;4949441;28;20224;-72
2021/07/28 09:27:49;;;;;;;3.93;3.63;;;;;;;23.04;100.00;97328.56;4931763;29;20224;-75
2021/07/28 09:30:36;;;;;;;3.80;3.50;;;;;;;23.06;100.00;97332.03;4933031;29;20209;-75
2021/07/28 09:33:09;;;;;;;4.40;4.00;;;;;;;23.01;100.00;97317.41;4948729;28;20252;-76
2021/07/28 09:35:54;;;;;;;3.90;3.60;;;;;;;23.06;100.00;97329.47;4915064;28;20209;-70
2021/07/28 09:38:37;;;;;;;4.17;3.77;;;;;;;23.02;100.00;97320.00;4961501;28;20232;-71
2021/07/28 09:41:32;;;;;;;5.00;3.80;;;;;;;23.09;100.00;97328.66;4932677;29;20685;-73
2021/07/28 09:44:00;;;;;;;4.00;3.60;;;;;;;23.08;100.00;97330.38;4945544;28;20299;-73
2021/07/28 09:46:36;;;;;;;3.93;3.57;;;;;;;23.08;100.00;97330.38;4948366;28;20228;-72
2021/07/28 09:49:07;;;;;;;4.30;3.90;;;;;;;23.10;100.00;97330.41;4945177;28;20937;-72
2021/07/28 09:51:38;;;;;;;4.10;3.70;;;;;;;23.05;100.00;97317.50;4941794;28;20208;-74
2021/07/28 09:54:07;;;;;;;4.83;3.67;;;;;;;23.09;100.00;97320.97;4930784;28;20627;-75
2021/07/28 09:56:49;;;;;;;3.63;3.33;;;;;;;23.09;100.00;97323.53;4949006;28;20298;-72
2021/07/28 09:59:16;;;;;;;3.97;3.53;;;;;;;23.01;100.00;97310.56;4948663;28;20290;-73
2021/07/28 10:01:46;;;;;;;3.87;3.50;;;;;;;23.08;100.00;97317.56;4945441;28;20471;-72
2021/07/28 10:04:17;;;;;;;3.70;3.40;;;;;;;23.05;100.00;97317.50;4949347;28;20229;-71
2021/07/28 10:06:46;;;;;;;4.20;3.77;;;;;;;22.76;100.00;97271.59;4949122;28;20694;-72
2021/07/28 10:09:17;;;;;;;3.67;3.30;;;;;;;22.85;100.00;97295.72;4945522;28;20255;-72
2021/07/28 10:11:47;;;;;;;4.73;3.60;;;;;;;23.00;100.00;97324.22;4949057;28;20223;-73
2021/07/28 10:14:18;;;;;;;5.20;3.77;;;;;;;22.99;100.00;97319.06;4948227;28;20248;-72
2021/07/28 10:16:45;;;;;;;3.80;3.50;;;;;;;23.08;100.00;97330.38;4949281;29;20283;-72
2021/07/28 10:19:12;;;;;;;4.03;3.73;;;;;;;23.05;100.00;97332.00;4946945;29;20251;-72
2021/07/28 10:21:49;;;;;;;3.90;3.50;;;;;;;23.05;100.00;97344.81;4948194;28;20342;-73
2021/07/28 10:24:15;;;;;;;4.50;3.83;;;;;;;23.05;100.00;97352.50;4949145;28;20634;-72
2021/07/28 10:26:44;;;;;;;5.87;3.80;;;;;;;22.95;100.00;97332.66;4948755;28;20686;-73
2021/07/28 10:29:11;;;;;;;3.67;3.37;;;;;;;23.09;100.00;97356.84;4932481;29;20200;-73
2021/07/28 10:31:50;;;;;;;3.80;3.50;;;;;;;22.76;100.00;97308.34;4948375;28;20235;-70
2021/07/28 10:34:27;;;;;;;5.73;4.03;;;;;;;23.08;100.00;97371.41;4946529;28;20212;-75
2021/07/28 10:36:57;;;;;;;3.97;3.57;;;;;;;23.07;100.00;97368.81;4948396;28;20302;-73
2021/07/28 10:39:47;;;;;;;4.37;3.97;;;;;;;23.08;100.00;97373.97;4962175;28;20205;-73
2021/07/28 10:42:18;;;;;;;4.23;3.83;;;;;;;22.97;100.00;97351.47;4947251;28;20271;-72
2021/07/28 10:45:01;;;;;;;4.40;4.00;;;;;;;22.98;100.00;97356.63;4949473;28;20812;-75
2021/07/28 10:47:37;;;;;;;4.47;3.70;;;;;;;23.08;100.00;97361.16;4948333;28;20557;-73
2021/07/28 10:50:06;;;;;;;6.67;3.93;;;;;;;22.96;100.00;97342.94;4944933;28;20844;-72
2021/07/28 10:52:44;;;;;;;5.87;4.03;;;;;;;23.09;100.00;97367.13;4938262;29;20238;-71
2021/07/28 10:55:12;;;;;;;4.07;3.70;;;;;;;23.08;100.00;97367.97;4948375;28;20212;-69
2021/07/28 10:57:44;;;;;;;4.23;3.83;;;;;;;23.09;100.00;97378.25;4949141;28;20200;-74
2021/07/28 11:00:11;;;;;;;4.40;3.83;;;;;;;23.10;100.00;97374.88;4948991;28;20250;-70
2021/07/28 11:02:56;;;;;;;4.30;3.90;;;;;;;23.10;100.00;97379.13;4947399;28;20681;-71
2021/07/28 11:05:30;;;;;;;4.37;3.97;;;;;;;23.03;100.00;97372.13;4948163;28;20220;-72
2021/07/28 11:08:03;;;;;;;4.27;3.87;;;;;;;23.09;100.00;97383.38;4948360;28;20945;-71
2021/07/28 11:10:32;;;;;;;4.67;4.00;;;;;;;22.98;100.00;97360.91;4946486;28;20251;-68
2021/07/28 11:12:59;;;;;;;4.80;3.80;;;;;;;23.07;100.00;97372.22;4947289;28;20268;-70
2021/07/28 11:15:26;;;;;;;4.43;4.03;;;;;;;23.12;100.00;97374.91;4947918;29;20235;-73
2021/07/28 11:17:53;;;;;;;6.23;3.90;;;;;;;22.73;100.00;97315.97;4948722;28;20231;-73
2021/07/28 11:20:33;;;;;;;6.07;4.23;;;;;;;23.07;100.00;97382.47;4945136;29;20228;-73
2021/07/28 11:23:24;;;;;;;5.93;3.90;;;;;;;23.11;100.00;97391.97;4944771;28;20252;-70
2021/07/28 11:25:52;;;;;;;4.10;3.67;;;;;;;23.11;100.00;97383.41;4947638;28;20231;-75
2021/07/28 11:28:22;;;;;;;5.90;3.63;;;;;;;23.02;100.00;97368.72;4947164;29;20287;-72
2021/07/28 11:30:59;;;;;;;5.90;4.20;;;;;;;22.95;100.00;97348.03;4944841;28;20232;-76
2021/07/28 11:33:27;;;;;;;5.23;4.23;;;;;;;23.10;100.00;97384.25;4943845;28;20718;-73
2021/07/28 11:35:54;;;;;;;4.70;3.77;;;;;;;23.10;100.00;97384.25;4934245;29;20196;-74